Time;durP1;ratioP1;P1;durP2;ratioP2;P2;SDS_P1;SDS_P2;PMS_P1;PMS_P2;Temp;Humidity;BMP_temperature;BMP_pressure;BME280_temperature;BME280_humidity;BME280_pressure;Samples;Min_cycle;Max_cycle;Signal;HPM_P1;HPM_P2
2021/10/13 00:01:52;;;;;;;24.83;12.32;;;;;;;6.54;100.00;94599.22;5093779;28;20036;-71
2021/10/13 00:04:19;;;;;;;25.75;11.25;;;;;;;6.55;100.00;94595.59;5096644;28;20135;-71
2021/10/13 00:06:46;;;;;;;19.88;11.07;;;;;;;6.54;100.00;94599.22;5092165;28;20047;-71
2021/10/13 00:09:13;;;;;;;24.55;11.02;;;;;;;6.63;100.00;94610.88;5076631;28;20101;-72
2021/10/13 00:11:40;;;;;;;20.08;10.75;;;;;;;6.63;100.00;94607.50;5094554;28;20040;-71
2021/10/13 00:14:08;;;;;;;24.50;11.88;;;;;;;6.52;100.00;94585.69;5092170;28;20101;-72
2021/10/13 00:16:35;;;;;;;18.55;10.30;;;;;;;6.54;100.00;94577.72;5080876;28;20109;-71
2021/10/13 00:19:03;;;;;;;24.10;12.52;;;;;;;6.64;100.00;94596.94;5074471;28;20040;-71
2021/10/13 00:21:30;;;;;;;18.48;10.68;;;;;;;6.63;100.00;94595.34;5094680;28;20051;-72
2021/10/13 00:23:56;;;;;;;23.20;11.73;;;;;;;6.58;100.00;94592.59;5096415;28;20043;-71
2021/10/13 00:26:23;;;;;;;19.88;9.73;;;;;;;6.59;100.00;94586.44;5094803;28;20101;-71
2021/10/13 00:28:50;;;;;;;21.75;10.75;;;;;;;6.68;100.00;94585.16;5093598;28;20058;-71
2021/10/13 00:31:17;;;;;;;18.88;11.20;;;;;;;6.60;100.00;94582.84;5080273;28;20058;-71
2021/10/13 00:33:44;;;;;;;18.65;10.52;;;;;;;6.71;100.00;94586.53;5093728;28;20028;-71
2021/10/13 00:36:10;;;;;;;22.15;11.00;;;;;;;6.73;100.00;94586.31;5094559;28;20047;-71
2021/10/13 00:38:37;;;;;;;23.17;12.30;;;;;;;6.67;100.00;94578.41;5095460;28;20428;-71
2021/10/13 00:41:04;;;;;;;20.05;11.00;;;;;;;6.73;100.00;94575.97;5093919;28;20448;-71
2021/10/13 00:43:31;;;;;;;22.92;11.52;;;;;;;6.73;100.00;94575.97;5074167;28;20048;-71
2021/10/13 00:45:57;;;;;;;22.75;12.38;;;;;;;6.68;100.00;94572.22;5093377;28;20493;-72
2021/10/13 00:48:24;;;;;;;24.38;12.13;;;;;;;6.66;100.00;94561.31;5073005;28;20516;-71
2021/10/13 00:50:53;;;;;;;23.92;12.32;;;;;;;6.75;100.00;94563.59;5087245;28;20048;-72
2021/10/13 00:53:19;;;;;;;23.27;12.35;;;;;;;6.67;100.00;94572.44;5092281;28;20036;-71
2021/10/13 00:55:46;;;;;;;24.73;12.25;;;;;;;6.66;100.00;94568.25;5092840;28;20039;-72
2021/10/13 00:58:13;;;;;;;22.27;11.95;;;;;;;6.68;100.00;94564.47;5089845;28;20459;-72
2021/10/13 01:00:46;;;;;;;22.55;11.43;;;;;;;6.66;100.00;94569.06;5092669;28;20059;-72
2021/10/13 01:03:21;;;;;;;22.50;12.77;;;;;;;6.72;100.00;94564.00;5092703;28;20126;-71
2021/10/13 01:05:47;;;;;;;;;;;;;;;6.76;100.00;94563.38;5092687;28;21041;-72
2021/10/13 01:08:41;;;;;;;22.08;10.93;;;;;;;6.74;100.00;94564.63;5093421;28;19920;-71
2021/10/13 01:11:21;;;;;;;28.30;13.02;;;;;;;6.73;100.00;94565.63;5095494;28;20547;-70
2021/10/13 01:13:55;;;;;;;25.23;12.60;;;;;;;6.73;100.00;94563.03;5087603;28;20059;-71
2021/10/13 01:16:48;;;;;;;26.52;12.43;;;;;;;6.75;100.00;94561.00;5092929;28;20050;-71
2021/10/13 01:19:36;;;;;;;24.65;12.65;;;;;;;6.75;100.00;94563.59;5090222;28;20044;-72
2021/10/13 01:22:40;;;;;;;25.75;11.68;;;;;;;6.83;100.00;94560.75;5090988;28;20040;-72
2021/10/13 01:25:22;;;;;;;25.35;12.88;;;;;;;6.74;100.00;94551.69;5089774;28;20048;-72
2021/10/13 01:28:00;;;;;;;25.90;13.07;;;;;;;6.76;100.00;94557.44;5092811;28;20394;-72
2021/10/13 01:30:33;;;;;;;31.60;12.50;;;;;;;6.75;100.00;94558.41;5095744;28;20040;-72
2021/10/13 01:33:25;;;;;;;25.50;13.52;;;;;;;6.73;100.00;94553.47;5091793;28;20028;-72
2021/10/13 01:35:59;;;;;;;25.73;12.98;;;;;;;6.76;100.00;94554.84;5095015;28;20488;-72
2021/10/13 01:38:28;;;;;;;27.52;13.52;;;;;;;6.88;100.00;94558.31;5091139;28;20040;-71
2021/10/13 01:41:00;;;;;;;26.15;13.45;;;;;;;6.89;100.00;94560.66;5092807;28;20039;-72
2021/10/13 01:43:32;;;;;;;28.95;15.15;;;;;;;6.86;100.00;94562.88;5094278;28;20032;-72
2021/10/13 01:46:02;;;;;;;29.13;12.68;;;;;;;6.77;100.00;94564.19;5097846;28;20051;-72
2021/10/13 01:48:32;;;;;;;28.17;14.50;;;;;;;6.88;100.00;94568.66;5067501;28;20051;-72
2021/10/13 01:51:00;;;;;;;29.63;14.40;;;;;;;6.86;100.00;94566.28;5072691;28;20081;-71
2021/10/13 01:53:27;;;;;;;25.80;13.48;;;;;;;6.82;100.00;94569.50;5092372;28;20044;-71
2021/10/13 01:55:57;;;;;;;26.42;12.98;;;;;;;6.87;100.00;94556.72;5094923;28;20052;-72
2021/10/13 01:58:25;;;;;;;24.27;12.93;;;;;;;6.91;100.00;94573.41;5091723;28;20054;-72
2021/10/13 02:00:53;;;;;;;22.52;12.90;;;;;;;6.82;100.00;94565.13;5089500;28;20055;-71
2021/10/13 02:03:24;;;;;;;24.05;12.02;;;;;;;6.86;100.00;94570.66;5092795;28;20510;-71
2021/10/13 02:05:55;;;;;;;21.25;12.13;;;;;;;6.77;100.00;94562.41;5087025;28;20051;-72
2021/10/13 02:08:23;;;;;;;31.95;12.45;;;;;;;6.76;100.00;94565.19;5090681;28;20051;-72
2021/10/13 02:10:52;;;;;;;20.23;11.90;;;;;;;6.79;100.00;94567.34;5091314;28;20092;-71
2021/10/13 02:13:20;;;;;;;28.83;12.55;;;;;;;6.81;100.00;94578.28;5091904;28;20044;-72
2021/10/13 02:15:50;;;;;;;26.48;13.52;;;;;;;6.87;100.00;94577.44;5092744;28;20048;-72
2021/10/13 02:18:21;;;;;;;28.02;11.88;;;;;;;6.86;100.00;94579.22;5096597;28;20035;-71
2021/10/13 02:20:49;;;;;;;25.33;12.00;;;;;;;6.82;100.00;94574.69;5094263;28;20031;-72
2021/10/13 02:23:18;;;;;;;28.05;12.68;;;;;;;6.79;100.00;94575.91;5092388;28;20493;-72
2021/10/13 02:25:48;;;;;;;23.67;12.85;;;;;;;6.74;100.00;94567.22;5093879;28;20100;-72
2021/10/13 02:28:23;;;;;;;26.15;13.02;;;;;;;6.80;100.00;94571.53;5097270;28;20048;-72
2021/10/13 02:30:53;;;;;;;25.60;12.27;;;;;;;6.75;100.00;94579.13;5092787;28;20062;-72
2021/10/13 02:33:20;;;;;;;24.70;14.02;;;;;;;6.69;100.00;94571.22;5096074;28;20072;-72
2021/10/13 02:35:47;;;;;;;24.98;12.70;;;;;;;6.68;100.00;94580.00;5095243;28;20043;-72
2021/10/13 02:38:14;;;;;;;28.30;13.68;;;;;;;6.75;100.00;94579.13;5091847;28;20116;-72
2021/10/13 02:40:41;;;;;;;24.13;12.15;;;;;;;6.72;100.00;94574.38;5088117;28;20094;-72
2021/10/13 02:43:10;;;;;;;28.65;13.68;;;;;;;6.75;100.00;94579.13;5093781;28;20043;-72
2021/10/13 02:45:43;;;;;;;26.80;12.95;;;;;;;6.77;100.00;94579.72;5089535;28;20110;-72
2021/10/13 02:48:16;;;;;;;32.07;14.40;;;;;;;6.81;100.00;94579.06;5090900;28;20044;-72
2021/10/13 02:50:52;;;;;;;22.15;11.75;;;;;;;6.75;100.00;94571.38;5098913;28;20048;-72
2021/10/13 02:53:31;;;;;;;21.27;12.57;;;;;;;6.77;100.00;94577.13;5094984;28;20421;-73
2021/10/13 02:56:02;;;;;;;30.08;14.07;;;;;;;6.70;100.00;94583.16;5078653;28;20047;-72
2021/10/13 02:58:42;;;;;;;26.92;13.43;;;;;;;6.70;100.00;94592.72;5100985;28;20101;-73
2021/10/13 03:01:12;;;;;;;26.63;12.70;;;;;;;6.46;100.00;94565.84;5093791;28;20036;-71
2021/10/13 03:04:02;;;;;;;20.90;11.55;;;;;;;6.65;100.00;94593.34;5075663;28;20036;-73
2021/10/13 03:06:36;;;;;;;26.38;13.68;;;;;;;6.60;100.00;94588.00;5094283;28;20047;-72
2021/10/13 03:09:03;;;;;;;25.77;12.82;;;;;;;6.59;100.00;94596.78;5094170;28;20040;-72
2021/10/13 03:11:30;;;;;;;25.73;13.52;;;;;;;6.61;100.00;94599.16;5078823;28;20429;-73
2021/10/13 03:14:01;;;;;;;26.02;13.45;;;;;;;6.61;100.00;94599.97;5092856;28;20059;-72
2021/10/13 03:16:28;;;;;;;27.45;15.02;;;;;;;6.58;100.00;94600.38;5096087;28;20040;-73
2021/10/13 03:18:57;;;;;;;24.70;11.90;;;;;;;6.62;100.00;94606.69;5094328;28;20032;-72
2021/10/13 03:21:26;;;;;;;26.65;12.85;;;;;;;6.61;100.00;94599.97;5093299;28;20444;-73
2021/10/13 03:23:54;;;;;;;28.00;14.90;;;;;;;6.60;100.00;94598.34;5091497;28;20486;-73
2021/10/13 03:26:21;;;;;;;29.27;13.90;;;;;;;6.69;100.00;94612.63;5097044;28;20066;-72
2021/10/13 03:28:47;;;;;;;23.65;12.07;;;;;;;6.69;100.00;94617.78;5091025;28;20089;-73
2021/10/13 03:31:16;;;;;;;25.00;13.13;;;;;;;6.69;100.00;94612.63;5090414;28;20595;-73
2021/10/13 03:33:47;;;;;;;29.02;14.40;;;;;;;6.63;100.00;94612.69;5075080;28;20445;-72
2021/10/13 03:36:14;;;;;;;23.75;12.52;;;;;;;6.52;100.00;94606.41;5087824;28;20047;-73
2021/10/13 03:38:41;;;;;;;27.67;12.90;;;;;;;6.53;100.00;94618.31;5088551;28;20036;-73
2021/10/13 03:41:08;;;;;;;25.92;11.93;;;;;;;6.40;100.00;94613.25;5094620;28;20074;-72
2021/10/13 03:43:35;;;;;;;23.65;11.75;;;;;;;6.35;100.00;94624.22;5097078;28;20105;-72
2021/10/13 03:46:01;;;;;;;26.10;12.55;;;;;;;6.32;100.00;94617.69;5096274;28;20066;-73
2021/10/13 03:48:30;;;;;;;28.42;15.38;;;;;;;6.24;100.00;94609.38;5094598;28;20071;-73
2021/10/13 03:50:57;;;;;;;27.13;13.90;;;;;;;6.34;100.00;94620.06;5090452;28;20490;-73
2021/10/13 03:53:24;;;;;;;33.17;16.58;;;;;;;6.32;100.00;94622.84;5093503;28;20040;-72
2021/10/13 03:55:50;;;;;;;34.42;15.68;;;;;;;6.23;100.00;94618.94;5080096;28;20398;-73
2021/10/13 03:58:17;;;;;;;24.00;12.63;;;;;;;6.19;100.00;94612.56;5094091;28;20043;-73
2021/10/13 04:00:44;;;;;;;35.85;15.13;;;;;;;6.15;100.00;94621.75;5068314;28;20055;-72
2021/10/13 04:03:11;;;;;;;31.55;15.38;;;;;;;6.00;100.00;94619.47;5093712;28;20869;-73
2021/10/13 04:05:38;;;;;;;27.95;12.32;;;;;;;5.98;100.00;94615.47;5071637;28;20044;-73
2021/10/13 04:08:08;;;;;;;27.63;12.18;;;;;;;5.85;100.00;94618.91;5096802;28;20035;-72
2021/10/13 04:10:35;;;;;;;26.05;13.05;;;;;;;5.88;100.00;94621.06;5097743;28;20060;-73
2021/10/13 04:13:02;;;;;;;25.20;12.32;;;;;;;5.63;100.00;94633.91;5092810;28;20043;-73
2021/10/13 04:15:29;;;;;;;23.92;12.85;;;;;;;5.60;100.00;94629.13;5094567;28;20271;-72
2021/10/13 04:17:55;;;;;;;25.30;13.60;;;;;;;5.54;100.00;94623.78;5071009;28;20129;-72
2021/10/13 04:20:22;;;;;;;25.98;15.18;;;;;;;5.53;100.00;94629.97;5072822;28;20063;-73
2021/10/13 04:22:49;;;;;;;26.38;13.55;;;;;;;5.39;100.00;94638.75;5070542;28;20051;-72
2021/10/13 04:25:16;;;;;;;32.35;15.98;;;;;;;5.29;100.00;94644.31;5093506;28;20040;-73
2021/10/13 04:27:43;;;;;;;34.53;15.85;;;;;;;5.32;100.00;94653.47;5089765;28;20044;-73
2021/10/13 04:30:10;;;;;;;34.78;15.77;;;;;;;5.32;100.00;94650.88;5101108;28;20123;-73
2021/10/13 04:32:36;;;;;;;28.15;14.07;;;;;;;5.25;100.00;94652.69;5095390;28;20040;-73
2021/10/13 04:35:04;;;;;;;22.52;14.43;;;;;;;5.20;100.00;94655.06;5088833;28;20051;-73
2021/10/13 04:37:31;;;;;;;25.48;13.38;;;;;;;5.11;100.00;94662.22;5071203;28;20040;-74
2021/10/13 04:39:57;;;;;;;26.92;14.60;;;;;;;5.14;100.00;94656.69;5078608;28;20047;-73
2021/10/13 04:42:24;;;;;;;26.45;13.45;;;;;;;5.13;100.00;94666.22;5083009;28;20425;-73
2021/10/13 04:44:54;;;;;;;33.58;14.68;;;;;;;5.11;100.00;94663.03;5094772;28;20063;-73
2021/10/13 04:47:20;;;;;;;26.10;13.00;;;;;;;5.08;100.00;94668.59;5092436;28;20525;-73
2021/10/13 04:49:48;;;;;;;27.17;14.20;;;;;;;4.99;100.00;94664.63;5090981;28;20047;-73
2021/10/13 04:52:15;;;;;;;25.25;13.02;;;;;;;5.00;100.00;94671.38;5092990;28;20136;-73
2021/10/13 04:54:42;;;;;;;27.23;13.85;;;;;;;5.07;100.00;94677.31;5089421;28;20044;-73
2021/10/13 04:57:09;;;;;;;25.10;13.25;;;;;;;4.99;100.00;94680.13;5091121;28;20036;-72
2021/10/13 04:59:35;;;;;;;30.15;13.88;;;;;;;5.01;100.00;94687.69;5093627;28;20047;-73
2021/10/13 05:02:02;;;;;;;24.88;13.23;;;;;;;5.03;100.00;94681.31;5091928;28;20493;-73
2021/10/13 05:04:29;;;;;;;28.80;14.65;;;;;;;4.91;100.00;94667.41;5091573;28;20047;-72
2021/10/13 05:06:56;;;;;;;28.48;12.93;;;;;;;5.05;100.00;94696.59;5091379;28;20040;-73
2021/10/13 05:09:26;;;;;;;25.88;12.95;;;;;;;5.01;100.00;94698.78;5091034;28;20048;-73
2021/10/13 05:11:54;;;;;;;30.90;14.45;;;;;;;5.02;100.00;94699.56;5092198;28;20047;-73
2021/10/13 05:14:20;;;;;;;26.45;15.40;;;;;;;5.01;100.00;94698.78;5093258;28;20050;-73
2021/10/13 05:16:47;;;;;;;29.08;13.95;;;;;;;5.03;100.00;94707.13;5092634;28;20424;-73
2021/10/13 05:19:14;;;;;;;26.13;13.50;;;;;;;5.08;100.00;94714.28;5087834;28;20452;-73
2021/10/13 05:21:41;;;;;;;31.27;14.70;;;;;;;5.08;100.00;94709.91;5091348;28;20039;-73
2021/10/13 05:24:09;;;;;;;26.27;12.50;;;;;;;5.14;100.00;94714.25;5091289;28;20039;-73
2021/10/13 05:26:36;;;;;;;25.80;13.60;;;;;;;5.19;100.00;94715.47;5092194;28;20126;-73
2021/10/13 05:29:03;;;;;;;24.30;12.20;;;;;;;5.23;100.00;94706.31;5090260;28;20047;-73
2021/10/13 05:31:30;;;;;;;29.33;15.73;;;;;;;5.25;100.00;94719.81;5092783;28;20047;-73
2021/10/13 05:33:56;;;;;;;28.85;14.48;;;;;;;5.37;100.00;94723.38;5086321;28;20063;-73
2021/10/13 05:36:23;;;;;;;30.35;15.05;;;;;;;5.38;100.00;94719.78;5088627;28;20501;-73
2021/10/13 05:38:55;;;;;;;30.08;15.50;;;;;;;5.44;100.00;94729.34;5098396;28;20063;-73
2021/10/13 05:41:23;;;;;;;26.83;14.38;;;;;;;5.45;100.00;94720.59;5074762;28;20044;-73
2021/10/13 05:43:50;;;;;;;30.48;15.40;;;;;;;5.55;100.00;94726.13;5097971;28;20126;-73
2021/10/13 05:46:17;;;;;;;30.27;14.82;;;;;;;5.65;100.00;94735.25;5088749;28;20097;-71
2021/10/13 05:48:44;;;;;;;31.90;14.75;;;;;;;5.62;100.00;94725.31;5091562;28;20036;-71
2021/10/13 05:51:11;;;;;;;27.77;15.05;;;;;;;5.73;100.00;94733.25;5094188;28;20044;-71
2021/10/13 05:53:38;;;;;;;28.63;15.07;;;;;;;5.76;100.00;94742.38;5091605;28;20044;-71
2021/10/13 05:56:05;;;;;;;27.35;15.02;;;;;;;5.76;100.00;94747.53;5088048;28;20051;-71
2021/10/13 05:58:32;;;;;;;25.25;13.65;;;;;;;5.82;100.00;94751.94;5090839;28;20048;-72
2021/10/13 06:00:59;;;;;;;26.70;14.75;;;;;;;5.86;100.00;94753.09;5086416;28;20082;-72
2021/10/13 06:03:26;;;;;;;34.30;15.50;;;;;;;5.90;100.00;94754.28;5087258;28;20078;-72
2021/10/13 06:05:53;;;;;;;28.17;14.80;;;;;;;5.93;100.00;94759.03;5085038;28;20044;-72
2021/10/13 06:08:21;;;;;;;28.80;15.32;;;;;;;5.91;100.00;94737.78;5086040;28;20048;-72
2021/10/13 06:10:48;;;;;;;28.10;15.18;;;;;;;6.05;100.00;94750.69;5085617;28;20063;-72
2021/10/13 06:13:15;;;;;;;35.28;16.98;;;;;;;6.16;100.00;94751.84;5097720;28;20044;-72
2021/10/13 06:15:43;;;;;;;42.50;17.33;;;;;;;6.24;100.00;94764.53;5089104;28;20035;-71
2021/10/13 06:18:10;;;;;;;26.23;14.73;;;;;;;6.15;100.00;94751.06;5096161;28;20044;-72
2021/10/13 06:20:37;;;;;;;31.48;15.25;;;;;;;6.19;100.00;94764.38;5090629;28;20062;-72
2021/10/13 06:23:04;;;;;;;29.27;14.45;;;;;;;6.23;100.00;94774.09;5093256;28;20421;-71
2021/10/13 06:25:31;;;;;;;26.58;14.52;;;;;;;6.34;100.00;94775.25;5090912;28;20493;-72
2021/10/13 06:27:58;;;;;;;25.60;14.13;;;;;;;6.42;100.00;94779.41;5088931;28;20054;-72
2021/10/13 06:30:25;;;;;;;31.65;16.10;;;;;;;6.51;100.00;94780.75;5089799;28;20580;-72
2021/10/13 06:32:51;;;;;;;32.72;15.00;;;;;;;6.57;100.00;94779.94;5088493;28;20055;-72
2021/10/13 06:35:18;;;;;;;28.73;14.20;;;;;;;6.61;100.00;94786.28;5089026;28;20043;-73
2021/10/13 06:37:46;;;;;;;30.25;14.75;;;;;;;6.66;100.00;94768.34;5088657;28;20081;-72
2021/10/13 06:40:14;;;;;;;27.13;14.73;;;;;;;6.70;100.00;94785.03;5090811;28;20058;-72
2021/10/13 06:42:41;;;;;;;22.73;12.50;;;;;;;6.75;100.00;94781.03;5072525;28;20117;-72
2021/10/13 06:45:09;;;;;;;25.23;13.88;;;;;;;6.92;100.00;94784.72;5088593;28;20040;-72
2021/10/13 06:47:37;;;;;;;30.20;13.73;;;;;;;7.02;100.00;94787.66;5091864;28;20496;-71
2021/10/13 06:50:05;;;;;;;26.42;13.73;;;;;;;7.17;100.00;94794.31;5097459;28;20048;-71
2021/10/13 06:52:33;;;;;;;29.65;14.57;;;;;;;7.21;100.00;94775.53;5098468;28;20527;-72
2021/10/13 06:55:00;;;;;;;30.48;14.55;;;;;;;7.32;100.00;94781.84;5091734;28;20048;-71
2021/10/13 06:57:27;;;;;;;27.05;13.55;;;;;;;7.32;100.00;94771.47;5094887;28;20052;-72
2021/10/13 06:59:54;;;;;;;28.45;14.02;;;;;;;7.46;100.00;94775.53;5095661;28;20036;-71
2021/10/13 07:02:21;;;;;;;23.10;13.27;;;;;;;7.60;100.00;94789.19;5091972;28;20043;-72
2021/10/13 07:04:48;;;;;;;25.25;14.35;;;;;;;7.74;100.00;94778.69;5093428;28;20062;-72
2021/10/13 07:07:15;;;;;;;23.85;12.27;;;;;;;7.96;100.00;94786.84;5075629;28;20501;-72
2021/10/13 07:09:42;;;;;;;20.15;11.65;;;;;;;8.11;100.00;94784.72;5094942;28;20063;-73
2021/10/13 07:12:09;;;;;;;22.20;12.48;;;;;;;8.30;100.00;94792.47;5090813;28;20056;-73
2021/10/13 07:14:36;;;;;;;23.38;12.73;;;;;;;8.36;100.00;94781.25;5087178;28;20040;-73
2021/10/13 07:17:02;;;;;;;26.75;13.70;;;;;;;8.36;100.00;94765.69;5094258;28;20040;-71
2021/10/13 07:19:29;;;;;;;21.92;12.90;;;;;;;8.40;99.84;94777.97;5090750;28;20495;-71
2021/10/13 07:21:56;;;;;;;18.83;11.57;;;;;;;8.19;97.88;94776.66;5087998;28;20056;-71
2021/10/13 07:24:23;;;;;;;22.40;12.18;;;;;;;8.14;97.73;94784.28;5087232;28;20032;-71
2021/10/13 07:26:50;;;;;;;23.25;12.88;;;;;;;8.32;99.49;94790.47;5084920;28;20040;-70
2021/10/13 07:29:17;;;;;;;19.95;11.95;;;;;;;8.51;99.99;94788.69;5087156;28;20489;-70
2021/10/13 07:31:44;;;;;;;22.85;12.80;;;;;;;8.51;98.61;94776.50;5090282;28;20048;-73
2021/10/13 07:34:10;;;;;;;23.55;13.68;;;;;;;8.63;97.89;94791.34;5091990;28;20440;-73
2021/10/13 07:36:38;;;;;;;22.88;12.95;;;;;;;8.68;97.73;94783.66;5085256;28;20560;-74
2021/10/13 07:39:05;;;;;;;18.85;12.07;;;;;;;8.73;97.04;94786.41;5086543;28;20036;-73
2021/10/13 07:41:34;;;;;;;20.48;12.05;;;;;;;8.80;97.37;94780.13;5086795;28;20047;-73
2021/10/13 07:44:00;;;;;;;24.65;13.32;;;;;;;8.98;96.57;94789.69;5072208;28;20081;-73
2021/10/13 07:46:27;;;;;;;22.65;12.82;;;;;;;9.25;96.88;94786.66;5090501;28;20040;-72
2021/10/13 07:48:54;;;;;;;22.58;13.13;;;;;;;9.46;98.46;94789.75;5090257;28;20040;-71
2021/10/13 07:54:07;;;;;;;23.27;13.13;;;;;;;9.42;94.37;94793.81;5089321;28;20027;-71
2021/10/13 07:56:34;;;;;;;29.13;12.02;;;;;;;9.49;93.55;94800.50;5093875;28;20459;-71
2021/10/13 07:59:00;;;;;;;20.48;10.75;;;;;;;9.53;92.09;94790.44;5085900;28;20048;-71
2021/10/13 08:01:27;;;;;;;25.45;13.63;;;;;;;9.71;93.66;94792.94;5090429;28;20097;-72
2021/10/13 08:03:55;;;;;;;96.82;43.50;;;;;;;9.72;91.05;94778.94;5061544;28;20044;-71
2021/10/13 08:06:22;;;;;;;47.63;26.35;;;;;;;9.71;90.50;94790.34;5090943;28;20043;-72
2021/10/13 08:08:48;;;;;;;19.77;11.60;;;;;;;9.78;89.63;94787.63;5090228;28;20048;-70
2021/10/13 08:11:15;;;;;;;14.55;8.95;;;;;;;9.61;86.03;94794.53;5094721;28;20056;-72
2021/10/13 08:13:42;;;;;;;18.55;9.40;;;;;;;9.64;85.78;94802.66;5094623;28;20047;-72
2021/10/13 08:16:09;;;;;;;16.35;8.35;;;;;;;9.74;85.31;94792.50;5094854;28;20062;-72
2021/10/13 08:18:36;;;;;;;19.90;9.82;;;;;;;9.74;84.51;94805.50;5097378;28;20047;-72
2021/10/13 08:21:03;;;;;;;16.23;9.30;;;;;;;9.63;85.64;94795.88;5091740;28;20054;-72
2021/10/13 08:23:30;;;;;;;17.95;9.43;;;;;;;9.65;86.71;94804.25;5088839;28;20040;-71
2021/10/13 08:25:59;;;;;;;15.60;9.25;;;;;;;9.68;86.39;94793.38;5075993;28;20134;-72
2021/10/13 08:28:27;;;;;;;21.15;10.25;;;;;;;9.88;83.72;94797.47;5093804;28;20075;-72
2021/10/13 08:30:55;;;;;;;18.98;10.75;;;;;;;10.08;84.35;94797.91;5096489;28;20044;-72
2021/10/13 08:33:22;;;;;;;18.42;10.43;;;;;;;10.08;84.19;94797.91;5086279;28;20055;-72
2021/10/13 08:35:49;;;;;;;15.95;9.70;;;;;;;10.07;82.21;94806.72;5089603;28;20044;-71
2021/10/13 08:38:16;;;;;;;20.88;12.27;;;;;;;10.24;83.68;94800.81;5090645;28;20573;-71
2021/10/13 08:40:47;;;;;;;16.40;8.77;;;;;;;10.18;79.87;94801.75;5094245;28;20123;-71
2021/10/13 08:43:14;;;;;;;15.40;8.73;;;;;;;10.20;82.99;94802.31;5094053;28;20055;-72
2021/10/13 08:45:41;;;;;;;15.32;9.45;;;;;;;10.17;82.85;94800.16;5100246;28;20482;-71
2021/10/13 08:48:08;;;;;;;19.35;9.75;;;;;;;10.11;80.41;94804.47;5092300;28;20127;-72
2021/10/13 08:50:38;;;;;;;18.30;10.10;;;;;;;10.10;79.89;94806.28;5092475;28;20040;-70
2021/10/13 08:53:10;;;;;;;14.10;8.15;;;;;;;10.35;79.15;94807.06;5094445;28;20051;-72
2021/10/13 08:55:40;;;;;;;14.48;8.52;;;;;;;10.27;77.90;94789.97;5087750;28;20097;-72
2021/10/13 08:58:07;;;;;;;15.30;8.80;;;;;;;10.21;77.21;94814.28;5092331;28;20044;-71
2021/10/13 09:00:33;;;;;;;14.93;8.48;;;;;;;10.30;78.52;94812.94;5092461;28;20052;-71
2021/10/13 09:03:01;;;;;;;19.05;9.38;;;;;;;10.36;78.42;94817.25;5092189;28;20428;-72
2021/10/13 09:05:28;;;;;;;15.68;9.93;;;;;;;10.44;77.33;94827.31;5086207;28;20043;-71
2021/10/13 09:07:56;;;;;;;15.50;9.65;;;;;;;10.42;80.08;94825.94;5091915;28;20156;-71
2021/10/13 09:10:28;;;;;;;13.82;7.72;;;;;;;10.25;76.21;94823.25;5088713;28;20119;-71
2021/10/13 09:12:56;;;;;;;12.43;7.60;;;;;;;10.32;75.53;94826.53;5089957;28;20048;-71
2021/10/13 09:15:26;;;;;;;14.80;9.32;;;;;;;10.67;78.05;94830.88;5090259;28;20405;-72
2021/10/13 09:18:06;;;;;;;12.30;7.35;;;;;;;11.15;74.93;94842.72;5091953;28;20096;-71
2021/10/13 09:20:40;;;;;;;12.10;7.38;;;;;;;11.03;73.22;94806.25;5089265;28;20068;-72
2021/10/13 09:23:16;;;;;;;;;;;;;;;11.41;72.07;94824.91;5086608;28;20499;-70
2021/10/13 09:26:03;;;;;;;10.75;6.88;;;;;;;11.48;71.64;94820.31;5068256;28;19961;-72
2021/10/13 09:28:31;;;;;;;13.13;7.40;;;;;;;11.23;70.71;94815.47;5092843;28;20044;-71
2021/10/13 09:31:18;;;;;;;12.75;8.25;;;;;;;11.23;70.29;94821.47;5092189;28;20043;-72
2021/10/13 09:33:59;;;;;;;12.73;7.15;;;;;;;11.24;70.74;94814.47;5091619;28;20588;-71
2021/10/13 09:36:34;;;;;;;15.73;8.93;;;;;;;10.98;72.34;94821.03;5087288;28;20051;-72
2021/10/13 09:39:11;;;;;;;18.35;10.82;;;;;;;11.28;74.87;94826.78;5089009;28;20036;-72
2021/10/13 09:42:13;;;;;;;13.27;7.75;;;;;;;11.51;69.02;94814.63;5089982;28;20051;-71
2021/10/13 09:44:42;;;;;;;13.23;7.82;;;;;;;12.07;66.97;94826.97;5001655;28;20484;-72
2021/10/13 09:47:11;;;;;;;15.50;8.27;;;;;;;12.36;65.91;94825.78;5059556;28;20048;-71
2021/10/13 09:49:44;;;;;;;13.63;7.72;;;;;;;12.61;63.92;94827.16;5089867;28;20104;-72
2021/10/13 09:52:14;;;;;;;17.33;9.85;;;;;;;12.80;63.56;94815.34;5088898;28;20051;-73
2021/10/13 09:54:43;;;;;;;16.27;8.65;;;;;;;12.87;63.50;94815.16;5075196;28;20475;-72
2021/10/13 09:57:24;;;;;;;15.50;9.00;;;;;;;12.94;64.81;94809.72;5090545;28;20036;-72
2021/10/13 10:00:25;;;;;;;12.00;7.25;;;;;;;13.02;60.94;94811.94;5089437;28;20047;-73
2021/10/13 10:02:54;;;;;;;11.63;7.47;;;;;;;12.96;62.26;94818.94;5094448;28;20040;-72
2021/10/13 10:05:29;;;;;;;13.25;7.50;;;;;;;13.01;62.06;94818.19;5087174;28;20040;-72
2021/10/13 10:08:08;;;;;;;9.95;5.60;;;;;;;13.22;61.69;94820.97;5085100;28;20390;-72
2021/10/13 10:10:37;;;;;;;11.30;7.30;;;;;;;13.28;60.62;94825.25;5093313;28;20047;-72
2021/10/13 10:13:09;;;;;;;9.85;6.90;;;;;;;13.48;57.62;94824.66;5093672;28;20047;-72
2021/10/13 10:15:47;;;;;;;12.98;8.40;;;;;;;13.45;58.32;94820.72;5091597;28;20413;-72
2021/10/13 10:18:33;;;;;;;12.05;7.57;;;;;;;13.80;58.47;94816.81;5091825;28;20125;-71
2021/10/13 10:21:25;;;;;;;9.32;5.55;;;;;;;13.94;53.54;94812.72;5095367;28;20462;-72
2021/10/13 10:23:58;;;;;;;13.13;6.22;;;;;;;13.75;54.16;94819.38;5072146;28;20051;-72
2021/10/13 10:26:24;;;;;;;11.32;6.40;;;;;;;13.62;54.34;94809.34;5086520;28;20109;-72
2021/10/13 10:28:52;;;;;;;8.43;5.50;;;;;;;13.36;54.31;94828.22;5092967;28;20044;-72
2021/10/13 10:31:28;;;;;;;11.57;6.82;;;;;;;13.35;55.53;94828.47;5089738;28;20056;-72
2021/10/13 10:34:07;;;;;;;10.93;6.60;;;;;;;13.71;56.04;94818.31;5088965;28;20044;-73
2021/10/13 10:36:33;;;;;;;14.20;6.55;;;;;;;14.19;54.37;94824.41;5089697;28;20050;-72
2021/10/13 10:39:21;;;;;;;19.95;6.00;;;;;;;14.78;51.13;94825.19;5084969;28;20451;-72
2021/10/13 10:41:52;;;;;;;7.97;5.65;;;;;;;15.16;50.86;94831.06;5090882;28;20055;-73
2021/10/13 10:44:39;;;;;;;8.52;4.95;;;;;;;15.59;48.04;94818.53;5083913;28;20051;-73
2021/10/13 10:47:11;;;;;;;8.23;4.40;;;;;;;15.57;48.04;94820.63;5088848;28;20768;-73
2021/10/13 10:49:47;;;;;;;9.52;5.55;;;;;;;15.55;48.82;94822.75;5089182;28;20429;-72
2021/10/13 10:52:21;;;;;;;10.20;5.68;;;;;;;15.61;47.97;94816.44;5088014;28;20101;-72
2021/10/13 10:54:58;;;;;;;9.70;5.53;;;;;;;15.74;47.22;94826.47;5088009;28;20036;-73
2021/10/13 10:57:33;;;;;;;8.68;4.30;;;;;;;15.67;45.64;94802.28;5096391;28;20461;-72
2021/10/13 11:00:08;;;;;;;7.47;4.45;;;;;;;15.04;46.60;94811.13;5092151;28;20051;-72
2021/10/13 11:02:36;;;;;;;9.73;5.32;;;;;;;14.21;48.56;94811.81;5095107;28;20048;-72
2021/10/13 11:05:08;;;;;;;7.75;4.43;;;;;;;14.06;50.06;94824.81;5093065;28;20105;-72
2021/10/13 11:07:36;;;;;;;7.18;4.75;;;;;;;14.01;51.12;94832.63;5096550;28;20622;-71
2021/10/13 11:10:08;;;;;;;7.28;4.32;;;;;;;13.91;49.92;94818.44;5093815;28;20048;-73
2021/10/13 11:13:04;;;;;;;7.38;4.18;;;;;;;13.68;51.41;94808.31;5092748;28;20048;-73
2021/10/13 11:15:32;;;;;;;8.15;4.68;;;;;;;13.32;51.21;94813.28;5072748;28;20055;-73
2021/10/13 11:18:16;;;;;;;6.82;3.95;;;;;;;12.91;51.38;94810.22;5099827;28;20058;-72
2021/10/13 11:20:45;;;;;;;7.67;4.70;;;;;;;12.84;52.71;94799.97;5094306;28;20500;-72
2021/10/13 11:23:13;;;;;;;9.82;5.65;;;;;;;12.96;51.24;94791.97;5098409;28;20043;-72
2021/10/13 11:25:40;;;;;;;9.50;5.85;;;;;;;12.92;52.55;94806.59;5089374;28;20047;-73
2021/10/13 11:28:10;;;;;;;7.13;4.53;;;;;;;12.90;53.57;94819.13;5098110;28;20070;-73
2021/10/13 11:30:42;;;;;;;9.10;4.80;;;;;;;12.90;55.04;94816.50;5096139;28;20055;-71
2021/10/13 11:33:12;;;;;;;6.95;4.10;;;;;;;13.27;53.81;94818.41;5098399;28;20044;-72
2021/10/13 11:35:40;;;;;;;8.65;5.32;;;;;;;13.49;53.10;94803.47;5096048;28;20046;-73
2021/10/13 11:38:07;;;;;;;11.90;5.63;;;;;;;13.10;55.07;94808.06;5092663;28;20097;-73